sensor_id;sensor_type;location;lat;lon;timestamp;pressure;altitude;pressure_sealevel;temperature;humidity
73240;BME280;61452;40.054;4.110;2023-12-20T00:04:46;102361.91;;;16.36;100.00
73240;BME280;61452;40.054;4.110;2023-12-20T00:09:48;102356.56;;;16.38;100.00
73240;BME280;61452;40.054;4.110;2023-12-20T00:14:50;102345.09;;;16.37;100.00
73240;BME280;61452;40.054;4.110;2023-12-20T00:19:52;102338.19;;;16.35;100.00
73240;BME280;61452;40.054;4.110;2023-12-20T00:24:55;102326.63;;;16.36;100.00
73240;BME280;61452;40.054;4.110;2023-12-20T00:29:57;102323.00;;;16.38;100.00
73240;BME280;61452;40.054;4.110;2023-12-20T00:34:59;102323.84;;;16.39;100.00
73240;BME280;61452;40.054;4.110;2023-12-20T00:40:01;102325.66;;;16.38;100.00
73240;BME280;61452;40.054;4.110;2023-12-20T00:45:03;102312.56;;;16.35;100.00
73240;BME280;61452;40.054;4.110;2023-12-20T00:50:07;102309.91;;;16.35;100.00
73240;BME280;61452;40.054;4.110;2023-12-20T00:55:09;102305.31;;;16.39;100.00
73240;BME280;61452;40.054;4.110;2023-12-20T01:00:14;102293.94;;;16.37;100.00
73240;BME280;61452;40.054;4.110;2023-12-20T01:05:18;102286.84;;;16.37;100.00
73240;BME280;61452;40.054;4.110;2023-12-20T01:10:21;102281.31;;;16.42;100.00
73240;BME280;61452;40.054;4.110;2023-12-20T01:15:24;102270.03;;;16.38;100.00
73240;BME280;61452;40.054;4.110;2023-12-20T01:20:26;102256.84;;;16.37;100.00
73240;BME280;61452;40.054;4.110;2023-12-20T01:25:28;102249.72;;;16.39;100.00
73240;BME280;61452;40.054;4.110;2023-12-20T01:30:30;102236.59;;;16.36;100.00
73240;BME280;61452;40.054;4.110;2023-12-20T01:35:32;102232.25;;;16.35;100.00
73240;BME280;61452;40.054;4.110;2023-12-20T01:40:34;102229.38;;;16.39;100.00
73240;BME280;61452;40.054;4.110;2023-12-20T01:45:36;102217.13;;;16.37;100.00
73240;BME280;61452;40.054;4.110;2023-12-20T01:50:39;102219.88;;;16.35;100.00
73240;BME280;61452;40.054;4.110;2023-12-20T01:55:42;102228.66;;;16.36;100.00
73240;BME280;61452;40.054;4.110;2023-12-20T02:00:45;102232.25;;;16.35;100.00
73240;BME280;61452;40.054;4.110;2023-12-20T02:05:47;102234.69;;;16.39;100.00
73240;BME280;61452;40.054;4.110;2023-12-20T02:10:49;102229.50;;;16.36;100.00
73240;BME280;61452;40.054;4.110;2023-12-20T02:15:52;102240.09;;;16.36;100.00
73240;BME280;61452;40.054;4.110;2023-12-20T02:20:54;102238.13;;;16.41;100.00
73240;BME280;61452;40.054;4.110;2023-12-20T02:25:57;102253.44;;;16.35;100.00
73240;BME280;61452;40.054;4.110;2023-12-20T02:30:59;102239.34;;;16.34;100.00
73240;BME280;61452;40.054;4.110;2023-12-20T02:36:02;102234.81;;;16.36;100.00
73240;BME280;61452;40.054;4.110;2023-12-20T02:41:04;102231.41;;;16.34;100.00
73240;BME280;61452;40.054;4.110;2023-12-20T02:46:06;102229.69;;;16.33;100.00
73240;BME280;61452;40.054;4.110;2023-12-20T02:51:08;102219.16;;;16.32;100.00
73240;BME280;61452;40.054;4.110;2023-12-20T02:56:10;102227.81;;;16.35;100.00
73240;BME280;61452;40.054;4.110;2023-12-20T03:01:12;102223.16;;;16.40;100.00
73240;BME280;61452;40.054;4.110;2023-12-20T03:06:20;102216.06;;;16.41;100.00
73240;BME280;61452;40.054;4.110;2023-12-20T03:11:26;102214.28;;;16.41;100.00
73240;BME280;61452;40.054;4.110;2023-12-20T03:16:29;102210.84;;;16.39;100.00
73240;BME280;61452;40.054;4.110;2023-12-20T03:21:34;102205.53;;;16.39;100.00
73240;BME280;61452;40.054;4.110;2023-12-20T03:26:36;102200.94;;;16.43;100.00
73240;BME280;61452;40.054;4.110;2023-12-20T03:31:38;102208.03;;;16.42;100.00
73240;BME280;61452;40.054;4.110;2023-12-20T03:36:40;102197.75;;;16.36;100.00
73240;BME280;61452;40.054;4.110;2023-12-20T03:41:42;102205.47;;;16.41;100.00
73240;BME280;61452;40.054;4.110;2023-12-20T03:46:45;102202.09;;;16.37;100.00
73240;BME280;61452;40.054;4.110;2023-12-20T03:51:47;102203.03;;;16.36;100.00
73240;BME280;61452;40.054;4.110;2023-12-20T03:56:49;102210.13;;;16.36;100.00
73240;BME280;61452;40.054;4.110;2023-12-20T04:01:52;102202.97;;;16.38;100.00
73240;BME280;61452;40.054;4.110;2023-12-20T04:06:54;102213.63;;;16.36;100.00
73240;BME280;61452;40.054;4.110;2023-12-20T04:11:56;102212.78;;;16.36;100.00
73240;BME280;61452;40.054;4.110;2023-12-20T04:16:59;102202.97;;;16.38;100.00
73240;BME280;61452;40.054;4.110;2023-12-20T04:22:01;102201.25;;;16.37;100.00
73240;BME280;61452;40.054;4.110;2023-12-20T04:27:03;102199.53;;;16.36;100.00
73240;BME280;61452;40.054;4.110;2023-12-20T04:32:05;102201.19;;;16.38;100.00
73240;BME280;61452;40.054;4.110;2023-12-20T04:37:08;102204.63;;;16.40;100.00
73240;BME280;61452;40.054;4.110;2023-12-20T04:42:10;102199.63;;;16.34;100.00
73240;BME280;61452;40.054;4.110;2023-12-20T04:47:12;102194.34;;;16.34;100.00
73240;BME280;61452;40.054;4.110;2023-12-20T04:52:20;102189.03;;;16.34;100.00
73240;BME280;61452;40.054;4.110;2023-12-20T04:57:23;102182.09;;;16.32;100.00
73240;BME280;61452;40.054;4.110;2023-12-20T05:02:25;102187.16;;;16.36;100.00
73240;BME280;61452;40.054;4.110;2023-12-20T05:07:27;102175.06;;;16.31;100.00
73240;BME280;61452;40.054;4.110;2023-12-20T05:12:30;102172.28;;;16.34;100.00
73240;BME280;61452;40.054;4.110;2023-12-20T05:17:32;102166.06;;;16.35;100.00
73240;BME280;61452;40.054;4.110;2023-12-20T05:22:35;102173.16;;;16.34;100.00
73240;BME280;61452;40.054;4.110;2023-12-20T05:27:37;102169.63;;;16.34;100.00
73240;BME280;61452;40.054;4.110;2023-12-20T05:32:39;102163.31;;;16.36;100.00
73240;BME280;61452;40.054;4.110;2023-12-20T05:37:41;102158.13;;;16.35;100.00
73240;BME280;61452;40.054;4.110;2023-12-20T05:42:44;102170.56;;;16.33;100.00
73240;BME280;61452;40.054;4.110;2023-12-20T05:47:46;102181.16;;;16.33;100.00
73240;BME280;61452;40.054;4.110;2023-12-20T05:52:48;102191.69;;;16.34;100.00
73240;BME280;61452;40.054;4.110;2023-12-20T05:57:50;102187.31;;;16.33;100.00
73240;BME280;61452;40.054;4.110;2023-12-20T06:02:52;102192.63;;;16.33;100.00
73240;BME280;61452;40.054;4.110;2023-12-20T06:07:54;102184.75;;;16.32;100.00
73240;BME280;61452;40.054;4.110;2023-12-20T06:12:58;102202.34;;;16.33;100.00
73240;BME280;61452;40.054;4.110;2023-12-20T06:18:02;102203.28;;;16.32;100.00
73240;BME280;61452;40.054;4.110;2023-12-20T06:23:05;102205.06;;;16.31;100.00
73240;BME280;61452;40.054;4.110;2023-12-20T06:28:07;102200.56;;;16.33;100.00
73240;BME280;61452;40.054;4.110;2023-12-20T06:33:09;102192.69;;;16.32;100.00
73240;BME280;61452;40.054;4.110;2023-12-20T06:38:13;102187.31;;;16.33;100.00
73240;BME280;61452;40.054;4.110;2023-12-20T06:43:15;102166.06;;;16.35;100.00
73240;BME280;61452;40.054;4.110;2023-12-20T06:48:37;102190.81;;;16.34;100.00
73240;BME280;61452;40.054;4.110;2023-12-20T06:53:39;102189.09;;;16.33;100.00
73240;BME280;61452;40.054;4.110;2023-12-20T06:58:41;102193.47;;;16.34;100.00
73240;BME280;61452;40.054;4.110;2023-12-20T07:03:43;102194.34;;;16.34;100.00
73240;BME280;61452;40.054;4.110;2023-12-20T07:08:45;102166.13;;;16.33;100.00
73240;BME280;61452;40.054;4.110;2023-12-20T07:13:47;102164.41;;;16.32;100.00
73240;BME280;61452;40.054;4.110;2023-12-20T07:18:50;102156.47;;;16.32;100.00
73240;BME280;61452;40.054;4.110;2023-12-20T07:23:54;102151.19;;;16.32;100.00
73240;BME280;61452;40.054;4.110;2023-12-20T07:28:56;102151.25;;;16.31;100.00
73240;BME280;61452;40.054;4.110;2023-12-20T07:34:00;102145.88;;;16.32;100.00
73240;BME280;61452;40.054;4.110;2023-12-20T07:39:02;102140.59;;;16.32;100.00
73240;BME280;61452;40.054;4.110;2023-12-20T07:44:04;102135.28;;;16.32;100.00
73240;BME280;61452;40.054;4.110;2023-12-20T07:49:07;102134.38;;;16.33;100.00
73240;BME280;61452;40.054;4.110;2023-12-20T07:54:10;102136.16;;;16.33;100.00
73240;BME280;61452;40.054;4.110;2023-12-20T07:59:12;102139.72;;;16.32;100.00
73240;BME280;61452;40.054;4.110;2023-12-20T08:04:30;102145.88;;;16.32;100.00
73240;BME280;61452;40.054;4.110;2023-12-20T08:09:32;102145.94;;;16.31;100.00
73240;BME280;61452;40.054;4.110;2023-12-20T08:14:35;102145.09;;;16.30;100.00
73240;BME280;61452;40.054;4.110;2023-12-20T08:19:37;102150.31;;;16.32;100.00
73240;BME280;61452;40.054;4.110;2023-12-20T08:24:40;102138.88;;;16.31;100.00
73240;BME280;61452;40.054;4.110;2023-12-20T08:29:44;102143.31;;;16.31;100.00
73240;BME280;61452;40.054;4.110;2023-12-20T08:34:46;102160.06;;;16.31;100.00
73240;BME280;61452;40.054;4.110;2023-12-20T08:39:49;102150.38;;;16.30;100.00
73240;BME280;61452;40.054;4.110;2023-12-20T08:44:51;102151.25;;;16.31;100.00
73240;BME280;61452;40.054;4.110;2023-12-20T08:49:53;102154.75;;;16.31;100.00
73240;BME280;61452;40.054;4.110;2023-12-20T08:55:00;102153.03;;;16.30;100.00
73240;BME280;61452;40.054;4.110;2023-12-20T09:00:02;102163.56;;;16.32;100.00
73240;BME280;61452;40.054;4.110;2023-12-20T09:05:07;102168.00;;;16.31;100.00
73240;BME280;61452;40.054;4.110;2023-12-20T09:10:09;102168.91;;;16.30;100.00
73240;BME280;61452;40.054;4.110;2023-12-20T09:15:11;102189.19;;;16.31;100.00
73240;BME280;61452;40.054;4.110;2023-12-20T09:20:14;102184.81;;;16.30;100.00
73240;BME280;61452;40.054;4.110;2023-12-20T09:25:16;102193.47;;;16.34;100.00
73240;BME280;61452;40.054;4.110;2023-12-20T09:30:19;102202.41;;;16.31;100.00
73240;BME280;61452;40.054;4.110;2023-12-20T09:35:28;102202.41;;;16.31;100.00
73240;BME280;61452;40.054;4.110;2023-12-20T09:40:32;102199.84;;;16.30;100.00
73240;BME280;61452;40.054;4.110;2023-12-20T09:45:35;102201.66;;;16.29;100.00
73240;BME280;61452;40.054;4.110;2023-12-20T09:50:37;102199.69;;;16.33;100.00
73240;BME280;61452;40.054;4.110;2023-12-20T09:55:41;102203.22;;;16.33;100.00
73240;BME280;61452;40.054;4.110;2023-12-20T10:00:43;102202.28;;;16.34;100.00
73240;BME280;61452;40.054;4.110;2023-12-20T10:05:46;102189.19;;;16.31;100.00
73240;BME280;61452;40.054;4.110;2023-12-20T10:10:51;102197.13;;;16.31;100.00
73240;BME280;61452;40.054;4.110;2023-12-20T10:15:55;102195.34;;;16.32;100.00
73240;BME280;61452;40.054;4.110;2023-12-20T10:20:57;102197.13;;;16.31;100.00
73240;BME280;61452;40.054;4.110;2023-12-20T10:26:00;102197.97;;;16.32;100.00
73240;BME280;61452;40.054;4.110;2023-12-20T10:31:02;102188.31;;;16.31;100.00
73240;BME280;61452;40.054;4.110;2023-12-20T10:36:05;102187.31;;;16.33;100.00
73240;BME280;61452;40.054;4.110;2023-12-20T10:41:08;102172.44;;;16.31;100.00
73240;BME280;61452;40.054;4.110;2023-12-20T10:46:12;102166.19;;;16.32;100.00
73240;BME280;61452;40.054;4.110;2023-12-20T10:51:17;102160.13;;;16.30;100.00
73240;BME280;61452;40.054;4.110;2023-12-20T10:56:20;102154.81;;;16.30;100.00
73240;BME280;61452;40.054;4.110;2023-12-20T11:01:27;102138.94;;;16.30;100.00
73240;BME280;61452;40.054;4.110;2023-12-20T11:06:40;102127.41;;;16.31;100.00
73240;BME280;61452;40.054;4.110;2023-12-20T11:17:16;102125.56;;;16.33;100.00
73240;BME280;61452;40.054;4.110;2023-12-20T11:22:32;102119.41;;;16.32;100.00
73240;BME280;61452;40.054;4.110;2023-12-20T11:27:42;102118.63;;;16.30;100.00
73240;BME280;61452;40.054;4.110;2023-12-20T11:32:51;102105.31;;;16.32;100.00
73240;BME280;61452;40.054;4.110;2023-12-20T11:37:53;102093.84;;;16.31;100.00
73240;BME280;61452;40.054;4.110;2023-12-20T11:42:55;102084.06;;;16.33;100.00
73240;BME280;61452;40.054;4.110;2023-12-20T11:47:57;102073.38;;;16.35;100.00
73240;BME280;61452;40.054;4.110;2023-12-20T11:53:00;102064.47;;;16.36;100.00
73240;BME280;61452;40.054;4.110;2023-12-20T11:58:02;102062.00;;;16.33;100.00
73240;BME280;61452;40.054;4.110;2023-12-20T12:03:05;102060.22;;;16.33;100.00
73240;BME280;61452;40.054;4.110;2023-12-20T12:08:07;102044.34;;;16.33;100.00
73240;BME280;61452;40.054;4.110;2023-12-20T12:13:10;102057.50;;;16.35;100.00
73240;BME280;61452;40.054;4.110;2023-12-20T12:18:16;102045.19;;;16.34;100.00
73240;BME280;61452;40.054;4.110;2023-12-20T12:23:24;102042.53;;;16.34;100.00
73240;BME280;61452;40.054;4.110;2023-12-20T12:28:26;102038.97;;;16.35;100.00
73240;BME280;61452;40.054;4.110;2023-12-20T12:33:30;102033.75;;;16.33;100.00
73240;BME280;61452;40.054;4.110;2023-12-20T12:38:32;102034.41;;;16.37;100.00
73240;BME280;61452;40.054;4.110;2023-12-20T12:43:35;102023.94;;;16.35;100.00
73240;BME280;61452;40.054;4.110;2023-12-20T12:48:37;102026.47;;;16.37;100.00
73240;BME280;61452;40.054;4.110;2023-12-20T12:53:42;102036.31;;;16.35;100.00
73240;BME280;61452;40.054;4.110;2023-12-20T12:58:45;102036.31;;;16.35;100.00
73240;BME280;61452;40.054;4.110;2023-12-20T13:03:47;102025.63;;;16.36;100.00
73240;BME280;61452;40.054;4.110;2023-12-20T13:08:49;102028.38;;;16.35;100.00
73240;BME280;61452;40.054;4.110;2023-12-20T13:13:51;102032.72;;;16.36;100.00
73240;BME280;61452;40.054;4.110;2023-12-20T13:18:54;102042.38;;;16.37;100.00
73240;BME280;61452;40.054;4.110;2023-12-20T13:23:56;102036.13;;;16.38;100.00
73240;BME280;61452;40.054;4.110;2023-12-20T13:28:58;102035.34;;;16.36;100.00
73240;BME280;61452;40.054;4.110;2023-12-20T13:34:00;102029.22;;;16.35;100.00
73240;BME280;61452;40.054;4.110;2023-12-20T13:39:03;102036.13;;;16.38;100.00
73240;BME280;61452;40.054;4.110;2023-12-20T13:44:06;102033.50;;;16.38;100.00
73240;BME280;61452;40.054;4.110;2023-12-20T13:49:08;102058.19;;;16.38;100.00
73240;BME280;61452;40.054;4.110;2023-12-20T13:54:11;102065.25;;;16.38;100.00
73240;BME280;61452;40.054;4.110;2023-12-20T13:59:13;102089.97;;;16.38;100.00
73240;BME280;61452;40.054;4.110;2023-12-20T14:04:16;102083.72;;;16.39;100.00
73240;BME280;61452;40.054;4.110;2023-12-20T14:09:39;102074.00;;;16.40;100.00
73240;BME280;61452;40.054;4.110;2023-12-20T14:14:41;102086.22;;;16.42;100.00
73240;BME280;61452;40.054;4.110;2023-12-20T14:19:43;102096.97;;;16.39;100.00
73240;BME280;61452;40.054;4.110;2023-12-20T14:24:45;102076.66;;;16.40;100.00
73240;BME280;61452;40.054;4.110;2023-12-20T14:29:47;102071.28;;;16.41;100.00
73240;BME280;61452;40.054;4.110;2023-12-20T14:34:49;102073.94;;;16.41;100.00
73240;BME280;61452;40.054;4.110;2023-12-20T14:39:52;102058.88;;;16.42;100.00
73240;BME280;61452;40.054;4.110;2023-12-20T14:44:54;102057.19;;;16.41;100.00
73240;BME280;61452;40.054;4.110;2023-12-20T14:49:56;102056.31;;;16.40;100.00
73240;BME280;61452;40.054;4.110;2023-12-20T14:54:58;102058.03;;;16.41;100.00
73240;BME280;61452;40.054;4.110;2023-12-20T15:00:00;102052.75;;;16.41;100.00
73240;BME280;61452;40.054;4.110;2023-12-20T15:05:03;102056.22;;;16.42;100.00
73240;BME280;61452;40.054;4.110;2023-12-20T15:10:05;102051.88;;;16.41;100.00
73240;BME280;61452;40.054;4.110;2023-12-20T15:15:07;102068.63;;;16.41;100.00
73240;BME280;61452;40.054;4.110;2023-12-20T15:20:11;102078.38;;;16.41;100.00
73240;BME280;61452;40.054;4.110;2023-12-20T15:25:13;102088.78;;;16.44;100.00
73240;BME280;61452;40.054;4.110;2023-12-20T15:30:22;102074.75;;;16.42;100.00
73240;BME280;61452;40.054;4.110;2023-12-20T15:35:27;102070.41;;;16.41;100.00
73240;BME280;61452;40.054;4.110;2023-12-20T15:40:29;102052.50;;;16.46;100.00
73240;BME280;61452;40.054;4.110;2023-12-20T15:45:32;102073.94;;;16.41;100.00
73240;BME280;61452;40.054;4.110;2023-12-20T15:50:34;102074.69;;;16.43;100.00
73240;BME280;61452;40.054;4.110;2023-12-20T15:55:37;102077.31;;;16.43;100.00
73240;BME280;61452;40.054;4.110;2023-12-20T16:00:39;102085.34;;;16.42;100.00
73240;BME280;61452;40.054;4.110;2023-12-20T16:05:42;102085.28;;;16.43;100.00
73240;BME280;61452;40.054;4.110;2023-12-20T16:10:44;102089.72;;;16.43;100.00
73240;BME280;61452;40.054;4.110;2023-12-20T16:15:46;102094.94;;;16.44;100.00
73240;BME280;61452;40.054;4.110;2023-12-20T16:20:48;102092.28;;;16.44;100.00
73240;BME280;61452;40.054;4.110;2023-12-20T16:25:51;102102.88;;;16.44;100.00
73240;BME280;61452;40.054;4.110;2023-12-20T16:30:53;102102.94;;;16.43;100.00
73240;BME280;61452;40.054;4.110;2023-12-20T16:35:58;102114.41;;;16.43;100.00
73240;BME280;61452;40.054;4.110;2023-12-20T16:41:00;102123.22;;;16.44;100.00
73240;BME280;61452;40.054;4.110;2023-12-20T16:46:02;102131.16;;;16.44;100.00
73240;BME280;61452;40.054;4.110;2023-12-20T16:51:07;102134.84;;;16.41;100.00
73240;BME280;61452;40.054;4.110;2023-12-20T16:56:09;102149.69;;;16.44;100.00
73240;BME280;61452;40.054;4.110;2023-12-20T17:01:11;102153.19;;;16.44;100.00
73240;BME280;61452;40.054;4.110;2023-12-20T17:06:15;102150.72;;;16.41;100.00
73240;BME280;61452;40.054;4.110;2023-12-20T17:11:17;102153.28;;;16.43;100.00
73240;BME280;61452;40.054;4.110;2023-12-20T17:16:20;102163.09;;;16.41;100.00
73240;BME280;61452;40.054;4.110;2023-12-20T17:21:22;102150.63;;;16.43;100.00
73240;BME280;61452;40.054;4.110;2023-12-20T17:26:24;102158.50;;;16.44;100.00
73240;BME280;61452;40.054;4.110;2023-12-20T17:31:27;102170.03;;;16.43;100.00
73240;BME280;61452;40.054;4.110;2023-12-20T17:36:29;102193.09;;;16.41;100.00
73240;BME280;61452;40.054;4.110;2023-12-20T17:41:31;102192.25;;;16.41;100.00
73240;BME280;61452;40.054;4.110;2023-12-20T17:46:34;102183.34;;;16.42;100.00
73240;BME280;61452;40.054;4.110;2023-12-20T17:51:37;102190.28;;;16.44;100.00
73240;BME280;61452;40.054;4.110;2023-12-20T17:56:39;102192.00;;;16.45;100.00
73240;BME280;61452;40.054;4.110;2023-12-20T18:01:41;102183.19;;;16.45;100.00
73240;BME280;61452;40.054;4.110;2023-12-20T18:06:44;102186.75;;;16.44;100.00
73240;BME280;61452;40.054;4.110;2023-12-20T18:11:46;102206.16;;;16.44;100.00
73240;BME280;61452;40.054;4.110;2023-12-20T18:16:48;102210.53;;;16.45;100.00
73240;BME280;61452;40.054;4.110;2023-12-20T18:21:50;102217.56;;;16.46;100.00
73240;BME280;61452;40.054;4.110;2023-12-20T18:26:53;102232.72;;;16.43;100.00
73240;BME280;61452;40.054;4.110;2023-12-20T18:31:55;102224.94;;;16.40;100.00
73240;BME280;61452;40.054;4.110;2023-12-20T18:36:57;102249.34;;;16.46;100.00
73240;BME280;61452;40.054;4.110;2023-12-20T18:41:59;102244.91;;;16.47;100.00
73240;BME280;61452;40.054;4.110;2023-12-20T18:47:01;102252.91;;;16.45;100.00
73240;BME280;61452;40.054;4.110;2023-12-20T18:52:04;102247.69;;;16.44;100.00
73240;BME280;61452;40.054;4.110;2023-12-20T18:57:07;102273.25;;;16.45;100.00
73240;BME280;61452;40.054;4.110;2023-12-20T19:02:11;102281.13;;;16.46;100.00
73240;BME280;61452;40.054;4.110;2023-12-20T19:07:14;102290.84;;;16.46;100.00
73240;BME280;61452;40.054;4.110;2023-12-20T19:12:16;102277.66;;;16.44;100.00
73240;BME280;61452;40.054;4.110;2023-12-20T19:17:19;102277.66;;;16.44;100.00
73240;BME280;61452;40.054;4.110;2023-12-20T19:22:22;102275.88;;;16.45;100.00
73240;BME280;61452;40.054;4.110;2023-12-20T19:27:24;102289.06;;;16.46;100.00
73240;BME280;61452;40.054;4.110;2023-12-20T19:32:26;102273.16;;;16.46;100.00
73240;BME280;61452;40.054;4.110;2023-12-20T19:37:29;102284.53;;;16.48;100.00
73240;BME280;61452;40.054;4.110;2023-12-20T19:42:31;102294.44;;;16.45;100.00
73240;BME280;61452;40.054;4.110;2023-12-20T19:47:37;102293.50;;;16.46;100.00
73240;BME280;61452;40.054;4.110;2023-12-20T19:52:39;102275.88;;;16.45;100.00
73240;BME280;61452;40.054;4.110;2023-12-20T19:57:42;102304.03;;;16.47;100.00
73240;BME280;61452;40.054;4.110;2023-12-20T20:02:44;102293.44;;;16.47;100.00
73240;BME280;61452;40.054;4.110;2023-12-20T20:07:46;102299.66;;;16.46;100.00
73240;BME280;61452;40.054;4.110;2023-12-20T20:12:48;102297.88;;;16.47;100.00
73240;BME280;61452;40.054;4.110;2023-12-20T20:17:50;102299.66;;;16.46;100.00
73240;BME280;61452;40.054;4.110;2023-12-20T20:22:52;102304.94;;;16.46;100.00
73240;BME280;61452;40.054;4.110;2023-12-20T20:27:54;102320.84;;;16.46;100.00
73240;BME280;61452;40.054;4.110;2023-12-20T20:32:56;102319.19;;;16.44;100.00
73240;BME280;61452;40.054;4.110;2023-12-20T20:37:58;102309.38;;;16.46;100.00
73240;BME280;61452;40.054;4.110;2023-12-20T20:43:00;102316.41;;;16.47;100.00
73240;BME280;61452;40.054;4.110;2023-12-20T20:48:03;102318.97;;;16.48;100.00
73240;BME280;61452;40.054;4.110;2023-12-20T20:53:25;102314.63;;;16.47;100.00
73240;BME280;61452;40.054;4.110;2023-12-20T20:58:27;102309.38;;;16.46;100.00
73240;BME280;61452;40.054;4.110;2023-12-20T21:03:29;102305.88;;;16.45;100.00
73240;BME280;61452;40.054;4.110;2023-12-20T21:08:32;102300.50;;;16.47;100.00
73240;BME280;61452;40.054;4.110;2023-12-20T21:13:34;102319.06;;;16.47;100.00
73240;BME280;61452;40.054;4.110;2023-12-20T21:18:43;102322.63;;;16.46;100.00
73240;BME280;61452;40.054;4.110;2023-12-20T21:23:48;102327.94;;;16.46;100.00
73240;BME280;61452;40.054;4.110;2023-12-20T21:28:50;102330.34;;;16.50;100.00
73240;BME280;61452;40.054;4.110;2023-12-20T21:33:52;102352.41;;;16.51;100.00
73240;BME280;61452;40.054;4.110;2023-12-20T21:38:55;102339.44;;;16.45;100.00
73240;BME280;61452;40.054;4.110;2023-12-20T21:43:57;102342.78;;;16.48;100.00
73240;BME280;61452;40.054;4.110;2023-12-20T21:48:59;102349.75;;;16.51;100.00
73240;BME280;61452;40.054;4.110;2023-12-20T21:54:02;102354.13;;;16.52;100.00
73240;BME280;61452;40.054;4.110;2023-12-20T21:59:05;102354.19;;;16.50;100.00
73240;BME280;61452;40.054;4.110;2023-12-20T22:04:07;102358.63;;;16.50;100.00
73240;BME280;61452;40.054;4.110;2023-12-20T22:09:10;102353.38;;;16.48;100.00
73240;BME280;61452;40.054;4.110;2023-12-20T22:14:12;102356.91;;;16.49;100.00
73240;BME280;61452;40.054;4.110;2023-12-20T22:19:14;102352.69;;;16.45;100.00
73240;BME280;61452;40.054;4.110;2023-12-20T22:24:16;102343.66;;;16.49;100.00
73240;BME280;61452;40.054;4.110;2023-12-20T22:29:19;102352.53;;;16.48;100.00
73240;BME280;61452;40.054;4.110;2023-12-20T22:34:21;102356.84;;;16.50;100.00
73240;BME280;61452;40.054;4.110;2023-12-20T22:39:23;102348.09;;;16.48;100.00
73240;BME280;61452;40.054;4.110;2023-12-20T22:44:25;102356.03;;;16.48;100.00
73240;BME280;61452;40.054;4.110;2023-12-20T22:49:27;102348.31;;;16.44;100.00
73240;BME280;61452;40.054;4.110;2023-12-20T22:54:29;102348.25;;;16.45;100.00
73240;BME280;61452;40.054;4.110;2023-12-20T22:59:31;102344.50;;;16.49;100.00
73240;BME280;61452;40.054;4.110;2023-12-20T23:04:33;102342.72;;;16.50;100.00
73240;BME280;61452;40.054;4.110;2023-12-20T23:09:36;102337.59;;;16.47;100.00
73240;BME280;61452;40.054;4.110;2023-12-20T23:14:40;102328.69;;;16.48;100.00
73240;BME280;61452;40.054;4.110;2023-12-20T23:19:42;102336.56;;;16.49;100.00
73240;BME280;61452;40.054;4.110;2023-12-20T23:24:45;102327.88;;;16.47;100.00
73240;BME280;61452;40.054;4.110;2023-12-20T23:29:48;102312.03;;;16.46;100.00
73240;BME280;61452;40.054;4.110;2023-12-20T23:34:50;102307.50;;;16.48;100.00
73240;BME280;61452;40.054;4.110;2023-12-20T23:40:12;102300.72;;;16.42;100.00
73240;BME280;61452;40.054;4.110;2023-12-20T23:45:14;102297.22;;;16.42;100.00
73240;BME280;61452;40.054;4.110;2023-12-20T23:50:17;102298.00;;;16.44;100.00
73240;BME280;61452;40.054;4.110;2023-12-20T23:55:19;102282.13;;;16.44;100.00
